Nearby METAR Reports

 

KTAN - Taunton, Massachusetts, USA
Distance from station: W 5mi, 8km
Updated: Tue, 03-Aug-2021 11:52am EDT
Clear
Clear
 Wind from varies
Wind: varies 5 mph , 7 km/h
Temperature: 77°F , 25°C
Dew Point: 63°F , 17°C
Humidity: 61%
Barometer: 30.12 inHg , 1020 hPa
Clouds: Clear
Visibility: 10 miles , 16 km
2021/08/03 15:52 KTAN 031552Z AUTO VRB04KT 10SM CLR 25/17 A3012 RMK AO2 SLP198 T02500167
KPYM - Plymouth, Massachusetts, USA
Distance from station: ENE 10mi, 16km
Updated: Tue, 03-Aug-2021 11:52am EDT
Clear
Clear
 Wind from SSW
Wind: SSW 7 mph , 11 km/h
Temperature: 75°F , 24°C
Dew Point: 57°F , 14°C
Humidity: 54%
Barometer: 30.13 inHg , 1020.3 hPa
Clouds: Clear
Visibility: 10 miles , 16 km
2021/08/03 15:52 KPYM 031552Z AUTO 21006KT 10SM CLR 24/14 A3013 RMK AO2 SLP201 T02440144 PWINO $
 
KEWB - New Bedford, Massachusetts, USA
Distance from station: S 14mi, 23km
Updated: Tue, 03-Aug-2021 11:53am EDT
Clear
Clear
 Wind from SSW
Wind: SSW 6 mph , 9 km/h
Temperature: 75°F , 24°C
Dew Point: 61°F , 16°C
Humidity: 61%
Barometer: 30.12 inHg , 1020 hPa
Clouds: Clear
Visibility: 10 miles , 16 km
2021/08/03 15:53 KEWB 031553Z 20005KT 10SM CLR 24/16 A3012 RMK AO2 SLP199 T02440156
KGHG - Marshfield, Massachusetts, USA
Distance from station: NE 20mi, 31km
Updated: Tue, 03-Aug-2021 11:55am EDT
Clear
Clear
 Wind from NE
Wind: NE 6 mph , 9 km/h
Temperature: 72°F , 22°C
Dew Point: 61°F , 16°C
Humidity: 69%
Barometer: 30.12 inHg , 1020 hPa
Clouds: Clear
Visibility: 10 miles , 16 km
2021/08/03 15:55 KGHG 031555Z AUTO 05005KT 10SM CLR 22/16 A3012 RMK AO2
 
KOWD - Norwood, Massachusetts, USA
Distance from station: NNW 24mi, 39km
Updated: Tue, 03-Aug-2021 11:53am EDT
Clear
Clear
 Wind from calm
Wind: Calm
Temperature: 77°F , 25°C
Dew Point: 55°F , 13°C
Humidity: 47%
Barometer: 30.12 inHg , 1020 hPa
Clouds: Clear
Visibility: 10 miles , 16 km
2021/08/03 15:53 KOWD 031553Z 00000KT 10SM CLR 25/13 A3012 RMK AO2 SLP198 T02500133
KMQE - East Milton, Massachusetts, USA
Distance from station: NNW 25mi, 40km
Updated: Thu, 01-Jul-2021 9:51am EDT
NOT Current

 Wind from WNW
Wind: WNW 9 mph , 15 km/h
Temperature: 75°F , 24°C
Dew Point: 70°F , 21°C
Humidity: 83%
Barometer: 29.86 inHg , 1011.2 hPa
2021/07/01 13:51 KMQE 011351Z AUTO 30008KT 24/21 A2986 RMK AO1 SLP116 T02440206
 
KFMH - Falmouth/Otis Ab, Massachusetts, USA
Distance from station: SE 27mi, 44km
Updated: Tue, 03-Aug-2021 11:56am EDT
Clear
Clear
 Wind from S
Wind: S 12 mph , 19 km/h
Temperature: 75°F , 24°C
Dew Point: 61°F , 16°C
Humidity: 61%
Barometer: 30.13 inHg , 1020.3 hPa
Clouds: Clear
Visibility: 10 miles , 16 km
2021/08/03 15:56 KFMH 031556Z 18010KT 10SM CLR 24/16 A3013
KPVD - Providence/Green, Rhode Island, USA
Distance from station: WSW 29mi, 47km
Updated: Tue, 03-Aug-2021 11:51am EDT
Overcast
Overcast
 Wind from S
Wind: S 6 mph , 9 km/h
Temperature: 75°F , 24°C
Dew Point: 57°F , 14°C
Humidity: 54%
Barometer: 30.13 inHg , 1020.3 hPa
Clouds: Overcast
Visibility: 10 miles , 16 km
Cloud details: Few Clouds 24000 ft
Overcast 30000 ft
2021/08/03 15:51 KPVD 031551Z 17005KT 10SM FEW240 OVC300 24/14 A3013 RMK AO2 SLP202 T02440139
 
KSFZ - Pawtucket, Rhode Island, USA
Distance from station: W 30mi, 48km
Updated: Tue, 03-Aug-2021 11:56am EDT
Clear
Clear
 Wind from calm
Wind: Calm
Temperature: 75°F , 24°C
Dew Point: 57°F , 14°C
Humidity: 54%
Barometer: 30.14 inHg , 1020.7 hPa
Clouds: Clear
Visibility: 10 miles , 16 km
2021/08/03 15:56 KSFZ 031556Z AUTO 00000KT 10SM CLR 24/14 A3014 RMK AO2 SLP210 T02390144 PNO $
KUUU - Newport, Rhode Island, USA
Distance from station: SW 31mi, 50km
Updated: Tue, 03-Aug-2021 11:53am EDT
Clear
Clear
 Wind from SSE
Wind: SSE 6 mph , 9 km/h
Temperature: 72°F , 22°C
Dew Point: 61°F , 16°C
Humidity: 69%
Barometer: 30.13 inHg , 1020.3 hPa
Clouds: Clear
Visibility: 10 miles , 16 km
2021/08/03 15:53 KUUU 031553Z AUTO 15005KT 10SM CLR 22/16 A3013 RMK AO2 SLP201 T02220156
 
KOQU - N. Kingston/Quon, Rhode Island, USA
Distance from station: SW 32mi, 52km
Updated: Tue, 03-Aug-2021 11:50am EDT
Overcast
Overcast
 Wind from S
Wind: S 8 mph , 13 km/h
Temperature: 73°F , 23°C
Dew Point: 59°F , 15°C
Humidity: 61%
Barometer: 30.13 inHg , 1020.3 hPa
Clouds: Overcast
Visibility: 10 miles , 16 km
Cloud details: Overcast 25000 ft
2021/08/03 15:50 KOQU 031550Z 17007KT 10SM OVC250 23/15 A3013
KBOS - Boston, Massachusetts, USA
Distance from station: N 33mi, 54km
Updated: Tue, 03-Aug-2021 11:54am EDT
Overcast
Overcast
 Wind from ESE
Wind: ESE 8 mph , 13 km/h
Temperature: 73°F , 23°C
Dew Point: 52°F , 11°C
Humidity: 47%
Barometer: 30.12 inHg , 1020 hPa
Clouds: Overcast
Visibility: 10 miles , 16 km
Cloud details: Few Clouds 5000 ft
Mostly cloudy 20000 ft
Overcast 25000 ft
2021/08/03 15:54 KBOS 031554Z 12007KT 10SM FEW050 BKN200 OVC250 23/11 A3012 RMK AO2 SLP200 T02330111
 
KHYA - Hyannis, Massachusetts, USA
Distance from station: ESE 37mi, 59km
Updated: Tue, 03-Aug-2021 11:56am EDT

 
Barometer: 30.12 inHg , 1020 hPa
2021/08/03 15:56 KHYA 031556Z AUTO A3012 RMK AO2 SLPNO PWINO $
KMVY - Marthas Vineyard, Massachusetts, USA
Distance from station: SSE 37mi, 60km
Updated: Tue, 03-Aug-2021 11:53am EDT
Clear
Clear
 Wind from S
Wind: S 6 mph , 9 km/h
Temperature: 73°F , 23°C
Dew Point: 64°F , 18°C
Humidity: 74%
Barometer: 30.13 inHg , 1020.3 hPa
Clouds: Clear
Visibility: 10 miles , 16 km
2021/08/03 15:53 KMVY 031553Z 19005KT 10SM CLR 23/18 A3013 RMK AO2 SLP203 T02280178 PNO
 
KPVC - Provincetown, Massachusetts, USA
Distance from station: ENE 38mi, 61km
Updated: Tue, 03-Aug-2021 11:56am EDT
Clear
Clear
 Wind from N
Wind: N 3 mph , 6 km/h
Temperature: 72°F , 22°C
Dew Point: 63°F , 17°C
Humidity: 73%
Barometer: 30.14 inHg , 1020.7 hPa
Clouds: Clear
Visibility: 10 miles , 16 km
2021/08/03 15:56 KPVC 031556Z AUTO 01003KT 10SM CLR 22/17 A3014 RMK AO2 SLP204 T02220167
KBED - Bedford, Massachusetts, USA
Distance from station: NNW 44mi, 72km
Updated: Tue, 03-Aug-2021 11:51am EDT
Clear
Clear
 Wind from WSW
Wind: WSW 6 mph , 9 km/h
Temperature: 75°F , 24°C
Dew Point: 55°F , 13°C
Humidity: 50%
Barometer: 30.12 inHg , 1020 hPa
Clouds: Clear
Visibility: 10 miles , 16 km
2021/08/03 15:51 KBED 031551Z 25005KT 10SM CLR 24/13 A3012 RMK AO2 SLP209 T02390128
 
KBVY - Beverly, Massachusetts, USA
Distance from station: 0 48mi, 77km
Updated: Tue, 03-Aug-2021 11:53am EDT
Clear
Clear
 Wind from S
Wind: S 7 mph , 11 km/h
Temperature: 75°F , 24°C
Dew Point: 59°F , 15°C
Humidity: 57%
Barometer: 30.11 inHg , 1019.6 hPa
Clouds: Clear
Visibility: 10 miles , 16 km
2021/08/03 15:53 KBVY 031553Z 17006KT 10SM CLR 24/15 A3011 RMK AO2 SLP192 T02390150
KCQX - Chatham, Massachusetts, USA
Distance from station: ESE 49mi, 80km
Updated: Tue, 03-Aug-2021 11:52am EDT
Clear
Clear
 Wind from S
Wind: S 3 mph , 6 km/h
Temperature: 73°F , 23°C
Dew Point: 63°F , 17°C
Humidity: 69%
Barometer: 30.15 inHg , 1021 hPa
Clouds: Clear
Visibility: 10 miles , 16 km
2021/08/03 15:52 KCQX 031552Z AUTO 19003KT 10SM CLR 23/17 A3015 RMK AO2 SLP210 T02330167